Terminal Aerodrome Forecast
Issued by NWS

Home | Current Version | Previous Version | Text Only | Print | Product List | Glossary On
Versions: 1 2 3 4 5 6 7 8 9 10 11 12 13
000
FTUS45 KVEF 301120
TAFBIH
TAF
KBIH 301120Z 3012/0112 32006KT P6SM SKC
     FM301500 VRB05KT P6SM SKC
     FM302000 17010G18KT P6SM FEW150
     FM010300 35006KT P6SM FEW200=

USA.gov is the U.S. government's official web portal to all federal, state and local government web resources and services.